sensor_id;sensor_type;location;lat;lon;timestamp;temperature;humidity
26505;DHT22;19493;48.042;7.584;2022-12-18T00:01:29;-5.50;99.90
26505;DHT22;19493;48.042;7.584;2022-12-18T00:03:55;-5.60;99.90
26505;DHT22;19493;48.042;7.584;2022-12-18T00:06:22;-5.60;99.90
26505;DHT22;19493;48.042;7.584;2022-12-18T00:08:48;-5.60;99.90
26505;DHT22;19493;48.042;7.584;2022-12-18T00:11:16;-5.60;99.90
26505;DHT22;19493;48.042;7.584;2022-12-18T00:13:43;-5.60;99.90
26505;DHT22;19493;48.042;7.584;2022-12-18T00:16:11;-5.60;99.90
26505;DHT22;19493;48.042;7.584;2022-12-18T00:18:37;-5.60;99.90
26505;DHT22;19493;48.042;7.584;2022-12-18T00:21:06;-5.60;99.90
26505;DHT22;19493;48.042;7.584;2022-12-18T00:23:33;-5.60;99.90
26505;DHT22;19493;48.042;7.584;2022-12-18T00:26:05;-5.60;99.90
26505;DHT22;19493;48.042;7.584;2022-12-18T00:28:31;-5.60;99.90
26505;DHT22;19493;48.042;7.584;2022-12-18T00:31:06;-5.60;99.90
26505;DHT22;19493;48.042;7.584;2022-12-18T00:33:32;-5.50;99.90
26505;DHT22;19493;48.042;7.584;2022-12-18T00:36:05;-5.50;99.90
26505;DHT22;19493;48.042;7.584;2022-12-18T00:38:31;-5.50;99.90
26505;DHT22;19493;48.042;7.584;2022-12-18T00:40:57;-5.50;99.90
26505;DHT22;19493;48.042;7.584;2022-12-18T00:43:23;-5.50;99.90
26505;DHT22;19493;48.042;7.584;2022-12-18T00:45:48;-5.50;99.90
26505;DHT22;19493;48.042;7.584;2022-12-18T00:48:14;-5.50;99.90
26505;DHT22;19493;48.042;7.584;2022-12-18T00:50:40;-5.50;99.90
26505;DHT22;19493;48.042;7.584;2022-12-18T00:53:05;-5.50;99.90
26505;DHT22;19493;48.042;7.584;2022-12-18T00:55:31;-5.50;99.90
26505;DHT22;19493;48.042;7.584;2022-12-18T00:57:57;-5.40;99.90
26505;DHT22;19493;48.042;7.584;2022-12-18T01:00:22;-5.50;99.90
26505;DHT22;19493;48.042;7.584;2022-12-18T01:02:48;-5.50;99.90
26505;DHT22;19493;48.042;7.584;2022-12-18T01:05:14;-5.50;99.90
26505;DHT22;19493;48.042;7.584;2022-12-18T01:07:40;-5.50;99.90
26505;DHT22;19493;48.042;7.584;2022-12-18T01:10:07;-5.50;99.90
26505;DHT22;19493;48.042;7.584;2022-12-18T01:12:34;-5.50;99.90
26505;DHT22;19493;48.042;7.584;2022-12-18T01:15:00;-5.50;99.90
26505;DHT22;19493;48.042;7.584;2022-12-18T01:17:26;-5.50;99.90
26505;DHT22;19493;48.042;7.584;2022-12-18T01:19:52;-5.40;99.90
26505;DHT22;19493;48.042;7.584;2022-12-18T01:22:17;-5.40;99.90
26505;DHT22;19493;48.042;7.584;2022-12-18T01:24:43;-5.40;99.90
26505;DHT22;19493;48.042;7.584;2022-12-18T01:27:09;-5.40;99.90
26505;DHT22;19493;48.042;7.584;2022-12-18T01:29:34;-5.40;99.90
26505;DHT22;19493;48.042;7.584;2022-12-18T01:32:00;-5.40;99.90
26505;DHT22;19493;48.042;7.584;2022-12-18T01:34:26;-5.40;99.90
26505;DHT22;19493;48.042;7.584;2022-12-18T01:36:51;-5.30;99.90
26505;DHT22;19493;48.042;7.584;2022-12-18T01:39:20;-5.30;99.90
26505;DHT22;19493;48.042;7.584;2022-12-18T01:41:46;-5.40;99.90
26505;DHT22;19493;48.042;7.584;2022-12-18T01:47:36;-5.40;99.90
26505;DHT22;19493;48.042;7.584;2022-12-18T01:50:12;-5.40;99.90
26505;DHT22;19493;48.042;7.584;2022-12-18T01:52:41;-5.40;99.90
26505;DHT22;19493;48.042;7.584;2022-12-18T01:55:08;-5.40;99.90
26505;DHT22;19493;48.042;7.584;2022-12-18T01:57:34;-5.40;99.90
26505;DHT22;19493;48.042;7.584;2022-12-18T02:00:04;-5.40;99.90
26505;DHT22;19493;48.042;7.584;2022-12-18T02:02:31;-5.40;99.90
26505;DHT22;19493;48.042;7.584;2022-12-18T02:04:56;-5.40;99.90
26505;DHT22;19493;48.042;7.584;2022-12-18T02:07:38;-5.40;99.90
26505;DHT22;19493;48.042;7.584;2022-12-18T02:10:17;-5.40;99.90
26505;DHT22;19493;48.042;7.584;2022-12-18T02:12:49;-5.40;99.90
26505;DHT22;19493;48.042;7.584;2022-12-18T02:18:06;-5.40;99.90
26505;DHT22;19493;48.042;7.584;2022-12-18T02:20:55;-5.40;99.90
26505;DHT22;19493;48.042;7.584;2022-12-18T02:26:29;-5.30;99.90
26505;DHT22;19493;48.042;7.584;2022-12-18T02:29:03;-5.40;99.90
26505;DHT22;19493;48.042;7.584;2022-12-18T02:31:39;-5.40;99.90
26505;DHT22;19493;48.042;7.584;2022-12-18T02:34:07;-5.40;99.90
26505;DHT22;19493;48.042;7.584;2022-12-18T02:36:34;-5.30;99.90
26505;DHT22;19493;48.042;7.584;2022-12-18T02:39:02;-5.40;99.90
26505;DHT22;19493;48.042;7.584;2022-12-18T02:41:30;-5.40;99.90
26505;DHT22;19493;48.042;7.584;2022-12-18T02:43:59;-5.30;99.90
26505;DHT22;19493;48.042;7.584;2022-12-18T02:46:34;-5.30;99.90
26505;DHT22;19493;48.042;7.584;2022-12-18T02:49:17;-5.30;99.90
26505;DHT22;19493;48.042;7.584;2022-12-18T02:52:01;-5.30;99.90
26505;DHT22;19493;48.042;7.584;2022-12-18T02:54:49;-5.40;99.90
26505;DHT22;19493;48.042;7.584;2022-12-18T03:00:16;-5.40;99.90
26505;DHT22;19493;48.042;7.584;2022-12-18T03:02:51;-5.40;99.90
26505;DHT22;19493;48.042;7.584;2022-12-18T03:05:17;-5.40;99.90
26505;DHT22;19493;48.042;7.584;2022-12-18T03:07:57;-5.40;99.90
26505;DHT22;19493;48.042;7.584;2022-12-18T03:10:28;-5.50;99.90
26505;DHT22;19493;48.042;7.584;2022-12-18T03:13:02;-5.50;99.90
26505;DHT22;19493;48.042;7.584;2022-12-18T03:15:34;-5.60;99.90
26505;DHT22;19493;48.042;7.584;2022-12-18T03:18:08;-5.50;99.90
26505;DHT22;19493;48.042;7.584;2022-12-18T03:20:37;-5.50;99.90
26505;DHT22;19493;48.042;7.584;2022-12-18T03:23:10;-5.50;99.90
26505;DHT22;19493;48.042;7.584;2022-12-18T03:25:40;-5.50;99.90
26505;DHT22;19493;48.042;7.584;2022-12-18T03:28:08;-5.60;99.90
26505;DHT22;19493;48.042;7.584;2022-12-18T03:30:37;-5.60;99.90
26505;DHT22;19493;48.042;7.584;2022-12-18T03:33:17;-5.60;99.90
26505;DHT22;19493;48.042;7.584;2022-12-18T03:35:45;-5.60;99.90
26505;DHT22;19493;48.042;7.584;2022-12-18T03:38:11;-5.60;99.90
26505;DHT22;19493;48.042;7.584;2022-12-18T03:43:55;-5.60;99.90
26505;DHT22;19493;48.042;7.584;2022-12-18T03:46:35;-5.60;99.90
26505;DHT22;19493;48.042;7.584;2022-12-18T03:52:06;-5.60;99.90
26505;DHT22;19493;48.042;7.584;2022-12-18T03:54:34;-5.70;99.90
26505;DHT22;19493;48.042;7.584;2022-12-18T03:57:10;-5.60;99.90
26505;DHT22;19493;48.042;7.584;2022-12-18T03:59:37;-5.60;99.90
26505;DHT22;19493;48.042;7.584;2022-12-18T04:02:04;-5.70;99.90
26505;DHT22;19493;48.042;7.584;2022-12-18T04:04:34;-5.70;99.90
26505;DHT22;19493;48.042;7.584;2022-12-18T04:07:00;-5.60;99.90
26505;DHT22;19493;48.042;7.584;2022-12-18T04:09:27;-5.70;99.90
26505;DHT22;19493;48.042;7.584;2022-12-18T04:11:53;-5.70;99.90
26505;DHT22;19493;48.042;7.584;2022-12-18T04:14:19;-5.70;99.90
26505;DHT22;19493;48.042;7.584;2022-12-18T04:16:44;-5.70;99.90
26505;DHT22;19493;48.042;7.584;2022-12-18T04:19:10;-5.70;99.90
26505;DHT22;19493;48.042;7.584;2022-12-18T04:21:35;-5.70;99.90
26505;DHT22;19493;48.042;7.584;2022-12-18T04:24:01;-5.70;99.90
26505;DHT22;19493;48.042;7.584;2022-12-18T04:26:27;-5.70;99.90
26505;DHT22;19493;48.042;7.584;2022-12-18T04:28:52;-5.70;99.90
26505;DHT22;19493;48.042;7.584;2022-12-18T04:31:18;-5.80;99.90
26505;DHT22;19493;48.042;7.584;2022-12-18T04:33:43;-5.80;99.90
26505;DHT22;19493;48.042;7.584;2022-12-18T04:36:09;-5.70;99.90
26505;DHT22;19493;48.042;7.584;2022-12-18T04:38:35;-5.70;99.90
26505;DHT22;19493;48.042;7.584;2022-12-18T04:41:00;-5.70;99.90
26505;DHT22;19493;48.042;7.584;2022-12-18T04:43:26;-5.70;99.90
26505;DHT22;19493;48.042;7.584;2022-12-18T04:45:51;-5.70;99.90
26505;DHT22;19493;48.042;7.584;2022-12-18T04:48:17;-5.70;99.90
26505;DHT22;19493;48.042;7.584;2022-12-18T04:50:42;-5.70;99.90
26505;DHT22;19493;48.042;7.584;2022-12-18T04:53:08;-5.60;99.90
26505;DHT22;19493;48.042;7.584;2022-12-18T04:55:34;-5.70;99.90
26505;DHT22;19493;48.042;7.584;2022-12-18T04:57:59;-5.70;99.90
26505;DHT22;19493;48.042;7.584;2022-12-18T05:00:25;-5.70;99.90
26505;DHT22;19493;48.042;7.584;2022-12-18T05:02:50;-5.70;99.90
26505;DHT22;19493;48.042;7.584;2022-12-18T05:05:16;-5.70;99.90
26505;DHT22;19493;48.042;7.584;2022-12-18T05:07:41;-5.70;99.90
26505;DHT22;19493;48.042;7.584;2022-12-18T05:10:07;-5.70;99.90
26505;DHT22;19493;48.042;7.584;2022-12-18T05:12:33;-5.70;99.90
26505;DHT22;19493;48.042;7.584;2022-12-18T05:14:59;-5.70;99.90
26505;DHT22;19493;48.042;7.584;2022-12-18T05:17:24;-5.80;99.90
26505;DHT22;19493;48.042;7.584;2022-12-18T05:19:50;-5.80;99.90
26505;DHT22;19493;48.042;7.584;2022-12-18T05:22:15;-5.80;99.90
26505;DHT22;19493;48.042;7.584;2022-12-18T05:24:41;-5.80;99.90
26505;DHT22;19493;48.042;7.584;2022-12-18T05:27:07;-5.80;99.90
26505;DHT22;19493;48.042;7.584;2022-12-18T05:29:32;-5.80;99.90
26505;DHT22;19493;48.042;7.584;2022-12-18T05:31:58;-5.80;99.90
26505;DHT22;19493;48.042;7.584;2022-12-18T05:34:23;-5.90;99.90
26505;DHT22;19493;48.042;7.584;2022-12-18T05:36:49;-5.90;99.90
26505;DHT22;19493;48.042;7.584;2022-12-18T05:39:14;-6.00;99.90
26505;DHT22;19493;48.042;7.584;2022-12-18T05:41:40;-6.00;99.90
26505;DHT22;19493;48.042;7.584;2022-12-18T05:44:05;-6.00;99.90
26505;DHT22;19493;48.042;7.584;2022-12-18T05:46:31;-6.00;99.90
26505;DHT22;19493;48.042;7.584;2022-12-18T05:48:59;-6.00;99.90
26505;DHT22;19493;48.042;7.584;2022-12-18T05:51:26;-6.00;99.90
26505;DHT22;19493;48.042;7.584;2022-12-18T05:53:51;-6.00;99.90
26505;DHT22;19493;48.042;7.584;2022-12-18T05:56:20;-6.00;99.90
26505;DHT22;19493;48.042;7.584;2022-12-18T05:58:46;-6.10;99.90
26505;DHT22;19493;48.042;7.584;2022-12-18T06:01:14;-6.10;99.90
26505;DHT22;19493;48.042;7.584;2022-12-18T06:03:40;-6.10;99.90
26505;DHT22;19493;48.042;7.584;2022-12-18T06:06:32;-6.10;99.90
26505;DHT22;19493;48.042;7.584;2022-12-18T06:08:58;-6.10;99.90
26505;DHT22;19493;48.042;7.584;2022-12-18T06:11:25;-6.10;99.90
26505;DHT22;19493;48.042;7.584;2022-12-18T06:13:53;-6.10;99.90
26505;DHT22;19493;48.042;7.584;2022-12-18T06:16:18;-6.10;99.90
26505;DHT22;19493;48.042;7.584;2022-12-18T06:18:44;-6.10;99.90
26505;DHT22;19493;48.042;7.584;2022-12-18T06:21:10;-6.10;99.90
26505;DHT22;19493;48.042;7.584;2022-12-18T06:23:36;-6.10;99.90
26505;DHT22;19493;48.042;7.584;2022-12-18T06:26:09;-6.10;99.90
26505;DHT22;19493;48.042;7.584;2022-12-18T06:28:35;-6.10;99.90
26505;DHT22;19493;48.042;7.584;2022-12-18T06:31:02;-6.10;99.90
26505;DHT22;19493;48.042;7.584;2022-12-18T06:33:28;-6.10;99.90
26505;DHT22;19493;48.042;7.584;2022-12-18T06:35:58;-6.10;99.90
26505;DHT22;19493;48.042;7.584;2022-12-18T06:38:24;-6.10;99.90
26505;DHT22;19493;48.042;7.584;2022-12-18T06:40:50;-6.20;99.90
26505;DHT22;19493;48.042;7.584;2022-12-18T06:43:15;-6.20;99.90
26505;DHT22;19493;48.042;7.584;2022-12-18T06:45:41;-6.20;99.90
26505;DHT22;19493;48.042;7.584;2022-12-18T06:48:07;-6.20;99.90
26505;DHT22;19493;48.042;7.584;2022-12-18T06:50:33;-6.20;99.90
26505;DHT22;19493;48.042;7.584;2022-12-18T06:52:59;-6.20;99.90
26505;DHT22;19493;48.042;7.584;2022-12-18T06:55:25;-6.20;99.90
26505;DHT22;19493;48.042;7.584;2022-12-18T06:57:50;-6.20;99.90
26505;DHT22;19493;48.042;7.584;2022-12-18T07:00:16;-6.20;99.90
26505;DHT22;19493;48.042;7.584;2022-12-18T07:02:42;-6.20;99.90
26505;DHT22;19493;48.042;7.584;2022-12-18T07:05:08;-6.20;99.90
26505;DHT22;19493;48.042;7.584;2022-12-18T07:07:34;-6.20;99.90
26505;DHT22;19493;48.042;7.584;2022-12-18T07:10:00;-6.30;99.90
26505;DHT22;19493;48.042;7.584;2022-12-18T07:12:27;-6.30;99.90
26505;DHT22;19493;48.042;7.584;2022-12-18T07:14:52;-6.30;99.90
26505;DHT22;19493;48.042;7.584;2022-12-18T07:17:18;-6.30;99.90
26505;DHT22;19493;48.042;7.584;2022-12-18T07:19:43;-6.30;99.90
26505;DHT22;19493;48.042;7.584;2022-12-18T07:22:09;-6.20;99.90
26505;DHT22;19493;48.042;7.584;2022-12-18T07:24:35;-6.20;99.90
26505;DHT22;19493;48.042;7.584;2022-12-18T07:27:00;-6.20;99.90
26505;DHT22;19493;48.042;7.584;2022-12-18T07:29:26;-6.20;99.90
26505;DHT22;19493;48.042;7.584;2022-12-18T07:31:51;-6.20;99.90
26505;DHT22;19493;48.042;7.584;2022-12-18T07:34:17;-6.20;99.90
26505;DHT22;19493;48.042;7.584;2022-12-18T07:36:43;-6.10;99.90
26505;DHT22;19493;48.042;7.584;2022-12-18T07:39:10;-6.10;99.90
26505;DHT22;19493;48.042;7.584;2022-12-18T07:41:35;-6.10;99.90
26505;DHT22;19493;48.042;7.584;2022-12-18T07:44:02;-6.10;99.90
26505;DHT22;19493;48.042;7.584;2022-12-18T07:46:28;-6.00;99.90
26505;DHT22;19493;48.042;7.584;2022-12-18T07:48:53;-6.00;99.90
26505;DHT22;19493;48.042;7.584;2022-12-18T07:51:19;-6.00;99.90
26505;DHT22;19493;48.042;7.584;2022-12-18T07:53:45;-6.00;99.90
26505;DHT22;19493;48.042;7.584;2022-12-18T07:56:11;-6.00;99.90
26505;DHT22;19493;48.042;7.584;2022-12-18T07:58:37;-6.00;99.90
26505;DHT22;19493;48.042;7.584;2022-12-18T08:01:08;-6.00;99.90
26505;DHT22;19493;48.042;7.584;2022-12-18T08:03:34;-6.00;99.90
26505;DHT22;19493;48.042;7.584;2022-12-18T08:06:05;-6.00;99.90
26505;DHT22;19493;48.042;7.584;2022-12-18T08:08:32;-5.90;99.90
26505;DHT22;19493;48.042;7.584;2022-12-18T08:10:58;-5.90;99.90
26505;DHT22;19493;48.042;7.584;2022-12-18T08:13:25;-5.80;99.90
26505;DHT22;19493;48.042;7.584;2022-12-18T08:16:02;-5.80;99.90
26505;DHT22;19493;48.042;7.584;2022-12-18T08:18:28;-5.70;99.90
26505;DHT22;19493;48.042;7.584;2022-12-18T08:20:54;-5.70;99.90
26505;DHT22;19493;48.042;7.584;2022-12-18T08:23:20;-5.70;99.90
26505;DHT22;19493;48.042;7.584;2022-12-18T08:25:46;-5.70;99.90
26505;DHT22;19493;48.042;7.584;2022-12-18T08:28:12;-5.70;99.90
26505;DHT22;19493;48.042;7.584;2022-12-18T08:30:37;-5.70;99.90
26505;DHT22;19493;48.042;7.584;2022-12-18T08:33:03;-5.60;99.90
26505;DHT22;19493;48.042;7.584;2022-12-18T08:35:29;-5.50;99.90
26505;DHT22;19493;48.042;7.584;2022-12-18T08:37:54;-5.40;99.90
26505;DHT22;19493;48.042;7.584;2022-12-18T08:40:20;-5.40;99.90
26505;DHT22;19493;48.042;7.584;2022-12-18T08:42:45;-5.40;99.90
26505;DHT22;19493;48.042;7.584;2022-12-18T08:45:29;-5.40;99.90
26505;DHT22;19493;48.042;7.584;2022-12-18T08:47:55;-5.30;99.90
26505;DHT22;19493;48.042;7.584;2022-12-18T08:50:21;-5.30;99.90
26505;DHT22;19493;48.042;7.584;2022-12-18T08:52:46;-5.20;99.90
26505;DHT22;19493;48.042;7.584;2022-12-18T08:55:12;-5.10;99.90
26505;DHT22;19493;48.042;7.584;2022-12-18T08:57:37;-4.90;99.90
26505;DHT22;19493;48.042;7.584;2022-12-18T09:00:04;-4.70;99.90
26505;DHT22;19493;48.042;7.584;2022-12-18T09:02:30;-4.70;99.90
26505;DHT22;19493;48.042;7.584;2022-12-18T09:04:55;-4.60;99.90
26505;DHT22;19493;48.042;7.584;2022-12-18T09:07:21;-4.50;99.90
26505;DHT22;19493;48.042;7.584;2022-12-18T09:09:46;-4.40;99.90
26505;DHT22;19493;48.042;7.584;2022-12-18T09:12:12;-4.30;99.90
26505;DHT22;19493;48.042;7.584;2022-12-18T09:14:37;-4.30;99.90
26505;DHT22;19493;48.042;7.584;2022-12-18T09:17:03;-4.20;99.90
26505;DHT22;19493;48.042;7.584;2022-12-18T09:19:29;-4.20;99.90
26505;DHT22;19493;48.042;7.584;2022-12-18T09:21:55;-4.20;99.90
26505;DHT22;19493;48.042;7.584;2022-12-18T09:24:22;-4.20;99.90
26505;DHT22;19493;48.042;7.584;2022-12-18T09:26:47;-4.20;99.90
26505;DHT22;19493;48.042;7.584;2022-12-18T09:29:13;-4.30;99.90
26505;DHT22;19493;48.042;7.584;2022-12-18T09:31:39;-4.30;99.90
26505;DHT22;19493;48.042;7.584;2022-12-18T09:34:05;-4.10;99.90
26505;DHT22;19493;48.042;7.584;2022-12-18T09:36:31;-3.90;99.90
26505;DHT22;19493;48.042;7.584;2022-12-18T09:38:56;-3.90;99.90
26505;DHT22;19493;48.042;7.584;2022-12-18T09:41:33;-3.70;99.90
26505;DHT22;19493;48.042;7.584;2022-12-18T09:44:05;-3.50;99.90
26505;DHT22;19493;48.042;7.584;2022-12-18T09:46:45;-3.50;99.90
26505;DHT22;19493;48.042;7.584;2022-12-18T09:49:14;-3.40;99.90
26505;DHT22;19493;48.042;7.584;2022-12-18T09:52:12;-3.30;99.90
26505;DHT22;19493;48.042;7.584;2022-12-18T09:54:38;-3.20;99.90
26505;DHT22;19493;48.042;7.584;2022-12-18T09:57:04;-3.30;99.90
26505;DHT22;19493;48.042;7.584;2022-12-18T09:59:34;-3.20;99.90
26505;DHT22;19493;48.042;7.584;2022-12-18T10:02:12;-3.20;99.90
26505;DHT22;19493;48.042;7.584;2022-12-18T10:04:39;-3.10;99.90
26505;DHT22;19493;48.042;7.584;2022-12-18T10:07:21;-3.10;99.90
26505;DHT22;19493;48.042;7.584;2022-12-18T10:15:47;-3.00;99.90
26505;DHT22;19493;48.042;7.584;2022-12-18T10:21:03;-2.80;99.90
26505;DHT22;19493;48.042;7.584;2022-12-18T10:23:56;-2.60;99.90
26505;DHT22;19493;48.042;7.584;2022-12-18T10:26:28;-2.40;99.90
26505;DHT22;19493;48.042;7.584;2022-12-18T10:28:54;-2.30;99.90
26505;DHT22;19493;48.042;7.584;2022-12-18T10:31:23;-2.40;99.90
26505;DHT22;19493;48.042;7.584;2022-12-18T10:33:49;-2.40;99.90
26505;DHT22;19493;48.042;7.584;2022-12-18T10:36:15;-2.30;99.90
26505;DHT22;19493;48.042;7.584;2022-12-18T10:38:41;-2.20;99.90
26505;DHT22;19493;48.042;7.584;2022-12-18T10:41:22;-2.00;99.90
26505;DHT22;19493;48.042;7.584;2022-12-18T10:44:20;-1.80;99.90
26505;DHT22;19493;48.042;7.584;2022-12-18T10:46:46;-1.60;99.90
26505;DHT22;19493;48.042;7.584;2022-12-18T10:49:25;-1.60;99.90
26505;DHT22;19493;48.042;7.584;2022-12-18T10:52:07;-1.50;99.90
26505;DHT22;19493;48.042;7.584;2022-12-18T10:54:37;-1.40;99.90
26505;DHT22;19493;48.042;7.584;2022-12-18T10:57:28;-1.50;99.90
26505;DHT22;19493;48.042;7.584;2022-12-18T10:59:56;-1.40;99.90
26505;DHT22;19493;48.042;7.584;2022-12-18T11:02:35;-1.50;99.90
26505;DHT22;19493;48.042;7.584;2022-12-18T11:05:01;-1.50;99.90
26505;DHT22;19493;48.042;7.584;2022-12-18T11:07:47;-1.60;99.90
26505;DHT22;19493;48.042;7.584;2022-12-18T11:10:17;-1.50;99.90
26505;DHT22;19493;48.042;7.584;2022-12-18T11:12:43;-1.40;99.90
26505;DHT22;19493;48.042;7.584;2022-12-18T11:15:35;-1.30;99.90
26505;DHT22;19493;48.042;7.584;2022-12-18T11:18:00;-1.40;99.90
26505;DHT22;19493;48.042;7.584;2022-12-18T11:20:32;-1.40;99.90
26505;DHT22;19493;48.042;7.584;2022-12-18T11:23:04;-1.40;99.90
26505;DHT22;19493;48.042;7.584;2022-12-18T11:25:32;-1.30;99.90
26505;DHT22;19493;48.042;7.584;2022-12-18T11:30:44;-0.90;99.90
26505;DHT22;19493;48.042;7.584;2022-12-18T11:33:18;-0.70;99.90
26505;DHT22;19493;48.042;7.584;2022-12-18T11:36:00;-0.60;99.90
26505;DHT22;19493;48.042;7.584;2022-12-18T11:38:40;-0.40;99.90
26505;DHT22;19493;48.042;7.584;2022-12-18T11:41:30;-0.20;99.90
26505;DHT22;19493;48.042;7.584;2022-12-18T11:47:41;0.90;99.90
26505;DHT22;19493;48.042;7.584;2022-12-18T11:50:23;1.30;99.90
26505;DHT22;19493;48.042;7.584;2022-12-18T11:52:49;1.80;99.90
26505;DHT22;19493;48.042;7.584;2022-12-18T11:55:37;2.40;99.90
26505;DHT22;19493;48.042;7.584;2022-12-18T12:04:01;3.80;99.90
26505;DHT22;19493;48.042;7.584;2022-12-18T12:07:03;4.50;99.90
26505;DHT22;19493;48.042;7.584;2022-12-18T12:09:43;5.10;99.90
26505;DHT22;19493;48.042;7.584;2022-12-18T12:20:48;4.50;99.90
26505;DHT22;19493;48.042;7.584;2022-12-18T12:23:38;4.40;99.90
26505;DHT22;19493;48.042;7.584;2022-12-18T12:27:01;4.10;99.90
26505;DHT22;19493;48.042;7.584;2022-12-18T12:29:20;3.90;99.90
26505;DHT22;19493;48.042;7.584;2022-12-18T12:39:44;2.70;99.90
26505;DHT22;19493;48.042;7.584;2022-12-18T12:42:29;2.50;99.90
26505;DHT22;19493;48.042;7.584;2022-12-18T12:45:22;2.30;99.90
26505;DHT22;19493;48.042;7.584;2022-12-18T12:47:50;2.00;99.90
26505;DHT22;19493;48.042;7.584;2022-12-18T12:50:19;1.90;99.90
26505;DHT22;19493;48.042;7.584;2022-12-18T12:52:56;1.60;99.90
26505;DHT22;19493;48.042;7.584;2022-12-18T12:55:25;1.40;99.90
26505;DHT22;19493;48.042;7.584;2022-12-18T12:58:06;1.60;99.90
26505;DHT22;19493;48.042;7.584;2022-12-18T13:00:52;1.50;99.90
26505;DHT22;19493;48.042;7.584;2022-12-18T13:06:37;1.40;99.90
26505;DHT22;19493;48.042;7.584;2022-12-18T13:09:06;1.50;99.90
26505;DHT22;19493;48.042;7.584;2022-12-18T13:11:40;1.50;99.90
26505;DHT22;19493;48.042;7.584;2022-12-18T13:14:36;1.60;99.90
26505;DHT22;19493;48.042;7.584;2022-12-18T13:19:51;1.70;99.90
26505;DHT22;19493;48.042;7.584;2022-12-18T13:22:32;1.70;99.90
26505;DHT22;19493;48.042;7.584;2022-12-18T13:24:59;1.50;99.90
26505;DHT22;19493;48.042;7.584;2022-12-18T13:38:39;1.50;99.90
26505;DHT22;19493;48.042;7.584;2022-12-18T13:41:26;1.30;99.90
26505;DHT22;19493;48.042;7.584;2022-12-18T13:43:57;1.10;99.90
26505;DHT22;19493;48.042;7.584;2022-12-18T13:51:47;0.80;99.90
26505;DHT22;19493;48.042;7.584;2022-12-18T13:54:34;0.80;99.90
26505;DHT22;19493;48.042;7.584;2022-12-18T13:57:00;0.70;99.90
26505;DHT22;19493;48.042;7.584;2022-12-18T13:59:37;0.70;99.90
26505;DHT22;19493;48.042;7.584;2022-12-18T14:02:18;0.50;99.90
26505;DHT22;19493;48.042;7.584;2022-12-18T14:04:46;0.30;99.90
26505;DHT22;19493;48.042;7.584;2022-12-18T14:07:18;0.00;99.90
26505;DHT22;19493;48.042;7.584;2022-12-18T14:09:50;-0.10;99.90
26505;DHT22;19493;48.042;7.584;2022-12-18T14:12:37;-0.30;99.90
26505;DHT22;19493;48.042;7.584;2022-12-18T14:15:41;-0.40;99.90
26505;DHT22;19493;48.042;7.584;2022-12-18T14:18:34;-0.70;99.90
26505;DHT22;19493;48.042;7.584;2022-12-18T14:21:03;-0.90;99.90
26505;DHT22;19493;48.042;7.584;2022-12-18T14:23:38;-1.00;99.90
26505;DHT22;19493;48.042;7.584;2022-12-18T14:28:50;-1.20;99.90
26505;DHT22;19493;48.042;7.584;2022-12-18T14:31:23;-1.30;99.90
26505;DHT22;19493;48.042;7.584;2022-12-18T14:33:50;-1.40;99.90
26505;DHT22;19493;48.042;7.584;2022-12-18T14:36:18;-1.60;99.90
26505;DHT22;19493;48.042;7.584;2022-12-18T14:38:48;-1.70;99.90
26505;DHT22;19493;48.042;7.584;2022-12-18T14:41:16;-1.80;99.90
26505;DHT22;19493;48.042;7.584;2022-12-18T14:43:44;-2.00;99.90
26505;DHT22;19493;48.042;7.584;2022-12-18T14:46:30;-2.10;99.90
26505;DHT22;19493;48.042;7.584;2022-12-18T14:48:56;-2.20;99.90
26505;DHT22;19493;48.042;7.584;2022-12-18T14:51:26;-2.20;99.90
26505;DHT22;19493;48.042;7.584;2022-12-18T14:53:57;-2.20;99.90
26505;DHT22;19493;48.042;7.584;2022-12-18T14:56:26;-2.20;99.90
26505;DHT22;19493;48.042;7.584;2022-12-18T14:59:12;-2.30;99.90
26505;DHT22;19493;48.042;7.584;2022-12-18T15:04:34;-2.40;99.90
26505;DHT22;19493;48.042;7.584;2022-12-18T15:07:20;-2.40;99.90
26505;DHT22;19493;48.042;7.584;2022-12-18T15:12:38;-2.60;99.90
26505;DHT22;19493;48.042;7.584;2022-12-18T15:15:43;-2.70;99.90
26505;DHT22;19493;48.042;7.584;2022-12-18T15:17:57;-2.80;99.90
26505;DHT22;19493;48.042;7.584;2022-12-18T15:20:23;-2.80;99.90
26505;DHT22;19493;48.042;7.584;2022-12-18T15:22:48;-2.90;99.90
26505;DHT22;19493;48.042;7.584;2022-12-18T15:25:31;-2.90;99.90
26505;DHT22;19493;48.042;7.584;2022-12-18T15:27:57;-3.00;99.90
26505;DHT22;19493;48.042;7.584;2022-12-18T15:30:24;-3.00;99.90
26505;DHT22;19493;48.042;7.584;2022-12-18T15:32:50;-3.10;99.90
26505;DHT22;19493;48.042;7.584;2022-12-18T15:35:20;-3.10;99.90
26505;DHT22;19493;48.042;7.584;2022-12-18T15:37:46;-3.20;99.90
26505;DHT22;19493;48.042;7.584;2022-12-18T15:40:21;-3.20;99.90
26505;DHT22;19493;48.042;7.584;2022-12-18T15:42:48;-3.30;99.90
26505;DHT22;19493;48.042;7.584;2022-12-18T15:45:33;-3.40;99.90
26505;DHT22;19493;48.042;7.584;2022-12-18T15:47:59;-3.40;99.90
26505;DHT22;19493;48.042;7.584;2022-12-18T15:50:25;-3.50;99.90
26505;DHT22;19493;48.042;7.584;2022-12-18T15:52:52;-3.50;99.90
26505;DHT22;19493;48.042;7.584;2022-12-18T15:55:20;-3.60;99.90
26505;DHT22;19493;48.042;7.584;2022-12-18T15:58:07;-3.60;99.90
26505;DHT22;19493;48.042;7.584;2022-12-18T16:00:34;-3.60;99.90
26505;DHT22;19493;48.042;7.584;2022-12-18T16:03:00;-3.60;99.90
26505;DHT22;19493;48.042;7.584;2022-12-18T16:05:26;-3.60;99.90
26505;DHT22;19493;48.042;7.584;2022-12-18T16:07:53;-3.60;99.90
26505;DHT22;19493;48.042;7.584;2022-12-18T16:10:19;-3.60;99.90
26505;DHT22;19493;48.042;7.584;2022-12-18T16:12:44;-3.70;99.90
26505;DHT22;19493;48.042;7.584;2022-12-18T16:15:12;-3.70;99.90
26505;DHT22;19493;48.042;7.584;2022-12-18T16:17:39;-3.70;99.90
26505;DHT22;19493;48.042;7.584;2022-12-18T16:20:13;-3.80;99.90
26505;DHT22;19493;48.042;7.584;2022-12-18T16:22:40;-3.80;99.90
26505;DHT22;19493;48.042;7.584;2022-12-18T16:27:42;-3.80;99.90
26505;DHT22;19493;48.042;7.584;2022-12-18T16:30:13;-3.80;99.90
26505;DHT22;19493;48.042;7.584;2022-12-18T16:32:39;-3.80;99.90
26505;DHT22;19493;48.042;7.584;2022-12-18T16:35:05;-3.80;99.90
26505;DHT22;19493;48.042;7.584;2022-12-18T16:37:30;-3.80;99.90
26505;DHT22;19493;48.042;7.584;2022-12-18T16:39:56;-3.70;99.90
26505;DHT22;19493;48.042;7.584;2022-12-18T16:42:21;-3.70;99.90
26505;DHT22;19493;48.042;7.584;2022-12-18T16:44:48;-3.70;99.90
26505;DHT22;19493;48.042;7.584;2022-12-18T16:47:15;-3.70;99.90
26505;DHT22;19493;48.042;7.584;2022-12-18T16:49:40;-3.70;99.90
26505;DHT22;19493;48.042;7.584;2022-12-18T16:52:06;-3.70;99.90
26505;DHT22;19493;48.042;7.584;2022-12-18T16:54:32;-3.70;99.90
26505;DHT22;19493;48.042;7.584;2022-12-18T16:56:59;-3.70;99.90
26505;DHT22;19493;48.042;7.584;2022-12-18T16:59:25;-3.70;99.90
26505;DHT22;19493;48.042;7.584;2022-12-18T17:01:51;-3.60;99.90
26505;DHT22;19493;48.042;7.584;2022-12-18T17:04:17;-3.60;99.90
26505;DHT22;19493;48.042;7.584;2022-12-18T17:06:44;-3.60;99.90
26505;DHT22;19493;48.042;7.584;2022-12-18T17:09:13;-3.60;99.90
26505;DHT22;19493;48.042;7.584;2022-12-18T17:11:40;-3.50;99.90
26505;DHT22;19493;48.042;7.584;2022-12-18T17:14:12;-3.50;99.90
26505;DHT22;19493;48.042;7.584;2022-12-18T17:16:38;-3.50;99.90
26505;DHT22;19493;48.042;7.584;2022-12-18T17:19:04;-3.40;99.90